Meteo Giornale » Osservazioni meteo Stati Uniti (USA) » Peoria
ore: 19:54 - Osservazioni Meteo Peoria
Lat. 40° 40' N Lon. 89° 41' W Alt. 201 metri s.l.m.
30 °C
Sereno
Temp. 24 Ore
22 °C
34 °C
Sud
7.4 Km/h
Dew point 22 °C
Umidità 62 %
Visibilità 10 Km
Il sole sorge alle ore 06:25
Il sole tramonta alle ore 19:32
| Data e Ora | Cielo e Fenomeni | T °C | DP °C | Um. % | Pres. hPa | Vis. km | Vento km/h | |
|---|---|---|---|---|---|---|---|---|
| Oggi h: 19:54 | Sereno | 30 | 22 | 62 | 1014 | 10 | S 7.4 | |
| Oggi h: 18:54 | Sereno | 32 | 23 | 59 | 1013 | 10 | N 5.5 | |
| Oggi h: 17:54 | Sereno | 34 | 22 | 49 | 1013 | 10 | SO 9.3 | |
| Oggi h: 16:54 | Sereno | 34 | 22 | 49 | 1013 | 10 | SO 11.1 | |
| Oggi h: 15:54 | Sereno | 34 | 21 | 46 | 1013 | 10 | O/SO 20.3 | |
| Oggi h: 14:54 | Sereno | 34 | 19 | 41 | 1013 | 10 | SO 22.2 | |
| Oggi h: 13:54 | Sereno | 33 | 20 | 46 | 1014 | 10 | SO 24 | |
| Oggi h: 12:54 | Sereno | 33 | 19 | 43 | 1015 | 10 | SO 24 | |
| Oggi h: 11:54 | Sereno | 31 | 19 | 48 | 1015 | 10 | SO 20.3 | |
| Oggi h: 10:54 | Nuvoloso | 30 | 18 | 48 | 1015 | 10 | S/SO 22.2 | |
| Oggi h: 09:54 | Sereno | 28 | 18 | 54 | 1015 | 10 | SO 24 | |
| Oggi h: 08:54 | Molto Nuvoloso | 25 | 18 | 65 | 1015 | 10 | S/SO 18.5 | |
| Oggi h: 07:54 | Sereno | 23 | 17 | 68 | 1015 | 10 | S 13 | |
| Oggi h: 06:54 | Sereno | 22 | 17 | 73 | 1015 | 10 | S/SO 9.3 | |
| Oggi h: 05:54 | Sereno | 22 | 17 | 73 | 1014 | 10 | S 11.1 | |
| Oggi h: 04:54 | Sereno | 22 | 17 | 73 | 1014 | 10 | S/SO 11.1 | |
| Oggi h: 03:54 | Sereno | 22 | 17 | 73 | 1014 | 10 | S/SO 11.1 | |
| Oggi h: 02:54 | Sereno | 22 | 17 | 73 | 1014 | 10 | S 9.3 | |
| Oggi h: 01:54 | Sereno | 23 | 17 | 68 | 1015 | 10 | S/SO 11.1 | |
| Oggi h: 00:54 | Sereno | 23 | 17 | 68 | 1015 | 10 | S 9.3 | |
| Ieri h: 23:54 | Sereno | 24 | 18 | 69 | 1015 | 10 | S 9.3 | |
| Ieri h: 22:54 | Sereno | 25 | 18 | 65 | 1015 | 10 | N 5.5 | |
| Ieri h: 21:54 | Sereno | 26 | 18 | 61 | 1015 | 10 | S/SE 9.3 | |
| Ieri h: 20:54 | Sereno | 27 | 18 | 57 | 1015 | 10 | S/SE 13 | |



